createdAt,value
2022-09-06T00:01:19.799Z,98588.03
2022-09-06T00:03:46.552Z,98596.28
2022-09-06T00:06:16.495Z,98598.94
2022-09-06T00:08:44.545Z,98589.34
2022-09-06T00:11:11.022Z,98584.28
2022-09-06T00:13:37.766Z,98595.13
2022-09-06T00:16:13.599Z,98590.78
2022-09-06T00:18:40.842Z,98589.09
2022-09-06T00:21:16.231Z,98593.47
2022-09-06T00:23:42.905Z,98585.56
2022-09-06T00:26:09.383Z,98587.75
2022-09-06T00:28:39.278Z,98593.88
2022-09-06T00:31:25.107Z,98590.63
2022-09-06T00:33:52.434Z,98579.38
2022-09-06T00:36:19.791Z,98588.59
2022-09-06T00:38:46.480Z,98585.06
2022-09-06T00:41:14.912Z,98586.06
2022-09-06T00:43:41.739Z,98575.22
2022-09-06T00:46:11.803Z,98578.34
2022-09-06T00:48:39.870Z,98563.97
2022-09-06T00:51:10.945Z,98559.59
2022-09-06T00:53:37.429Z,98557.53
2022-09-06T00:56:04.367Z,98559.69
2022-09-06T00:58:31.127Z,98565.25
2022-09-06T01:00:57.560Z,98562.00
2022-09-06T01:03:25.450Z,98558.75
2022-09-06T01:06:16.199Z,98561.25
2022-09-06T01:08:58.624Z,98562.91
2022-09-06T01:11:34.202Z,98576.69
2022-09-06T01:14:31.597Z,98580.06
2022-09-06T01:17:13.208Z,98582.00
2022-09-06T01:19:48.410Z,98586.66
2022-09-06T01:22:33.530Z,98580.47
2022-09-06T01:25:28.047Z,98588.72
2022-09-06T01:28:06.558Z,98585.94
2022-09-06T01:30:36.670Z,98582.22
2022-09-06T01:33:15.128Z,98577.53
2022-09-06T01:35:50.666Z,98580.00
2022-09-06T01:38:17.543Z,98582.81
2022-09-06T01:40:44.118Z,98581.63
2022-09-06T01:43:13.582Z,98583.78
2022-09-06T01:45:49.027Z,98581.63
2022-09-06T01:48:34.058Z,98570.56
2022-09-06T01:51:37.834Z,98576.03
2022-09-06T01:54:43.241Z,98572.00
2022-09-06T01:57:35.975Z,98568.94
2022-09-06T02:00:07.116Z,98574.28
2022-09-06T02:03:11.570Z,98575.28
2022-09-06T02:05:47.676Z,98616.84
2022-09-06T02:08:21.091Z,98637.38
2022-09-06T02:10:54.937Z,98638.09
2022-09-06T02:13:23.961Z,98645.09
2022-09-06T02:15:56.345Z,98646.59
2022-09-06T02:18:29.827Z,98653.72
2022-09-06T02:20:58.630Z,98653.72
2022-09-06T02:23:30.715Z,98648.81
2022-09-06T02:26:07.230Z,98646.56
2022-09-06T02:28:33.814Z,98648.16
2022-09-06T02:31:07.120Z,98646.88
2022-09-06T02:33:35.783Z,98645.75
2022-09-06T02:36:08.309Z,98645.38
2022-09-06T02:38:39.252Z,98638.34
2022-09-06T02:41:07.462Z,98648.56
2022-09-06T02:43:34.247Z,98643.19
2022-09-06T02:46:00.889Z,98635.69
2022-09-06T02:48:27.526Z,98624.28
2022-09-06T02:50:54.023Z,98625.53
2022-09-06T02:53:20.683Z,98615.94
2022-09-06T02:55:48.731Z,98624.69
2022-09-06T02:58:15.880Z,98606.78
2022-09-06T03:00:42.589Z,98606.81
2022-09-06T03:03:09.027Z,98606.81
2022-09-06T03:05:35.473Z,98602.63
2022-09-06T03:08:02.320Z,98607.44
2022-09-06T03:10:28.797Z,98603.06
2022-09-06T03:12:55.250Z,98604.09
2022-09-06T03:15:21.698Z,98612.00
2022-09-06T03:17:48.103Z,98599.94
2022-09-06T03:20:14.832Z,98597.84
2022-09-06T03:22:41.760Z,98578.28
2022-09-06T03:25:09.456Z,98566.22
2022-09-06T03:27:36.181Z,98559.78
2022-09-06T03:30:03.186Z,98557.50
2022-09-06T03:32:29.671Z,98522.13
2022-09-06T03:34:56.112Z,98513.81
2022-09-06T03:37:22.525Z,98510.72
2022-09-06T03:39:49.081Z,98525.81
2022-09-06T03:42:15.622Z,98529.59
2022-09-06T03:44:42.123Z,98536.88
2022-09-06T03:47:08.590Z,98542.25
2022-09-06T03:49:35.196Z,98534.53
2022-09-06T03:52:02.266Z,98544.78
2022-09-06T03:54:29.108Z,98540.47
2022-09-06T03:56:55.881Z,98528.44
2022-09-06T03:59:22.340Z,98508.88
2022-09-06T04:01:48.828Z,98508.84
2022-09-06T04:04:15.264Z,98518.75
2022-09-06T04:06:41.737Z,98514.69
2022-09-06T04:09:08.209Z,98519.69
2022-09-06T04:11:34.676Z,98502.59
2022-09-06T04:14:01.305Z,98491.38
2022-09-06T04:16:27.763Z,98481.78
2022-09-06T04:18:54.426Z,98489.78
2022-09-06T04:21:20.845Z,98481.34
2022-09-06T04:23:47.347Z,98492.38
2022-09-06T04:26:13.820Z,98496.91
2022-09-06T04:28:40.297Z,98478.16
2022-09-06T04:31:06.693Z,98493.19
2022-09-06T04:33:35.446Z,98484.19
2022-09-06T04:36:03.762Z,98485.09
2022-09-06T04:38:34.246Z,98486.09
2022-09-06T04:41:00.884Z,98491.44
2022-09-06T04:43:27.369Z,98490.44
2022-09-06T04:45:53.842Z,98497.28
2022-09-06T04:48:20.392Z,98534.31
2022-09-06T04:50:47.002Z,98524.16
2022-09-06T04:53:13.541Z,98525.53
2022-09-06T04:55:40.058Z,98530.19
2022-09-06T04:58:06.518Z,98536.91
2022-09-06T05:00:34.360Z,98520.41
2022-09-06T05:03:00.926Z,98527.22
2022-09-06T05:05:27.585Z,98531.66
2022-09-06T05:07:55.317Z,98532.78
2022-09-06T05:10:23.311Z,98534.56
2022-09-06T05:12:51.221Z,98530.00
2022-09-06T05:15:18.807Z,98531.53
2022-09-06T05:17:45.432Z,98533.19
2022-09-06T05:20:12.802Z,98539.09
2022-09-06T05:22:40.079Z,98551.91
2022-09-06T05:25:08.850Z,98548.94
2022-09-06T05:27:35.711Z,98549.41
2022-09-06T05:30:04.045Z,98545.91
2022-09-06T05:32:30.591Z,98554.91
2022-09-06T05:34:57.079Z,98566.94
2022-09-06T05:37:23.712Z,98568.94
2022-09-06T05:39:50.276Z,98568.31
2022-09-06T05:42:19.277Z,98563.09
2022-09-06T05:44:46.138Z,98565.59
2022-09-06T05:47:12.682Z,98575.00
2022-09-06T05:49:39.180Z,98580.56
2022-09-06T05:52:05.792Z,98570.72
2022-09-06T05:54:32.296Z,98576.34
2022-09-06T05:56:58.723Z,98576.34
2022-09-06T05:59:25.205Z,98574.16
2022-09-06T06:01:53.137Z,98576.13
2022-09-06T06:04:21.549Z,98571.78
2022-09-06T06:06:49.288Z,98567.19
2022-09-06T06:09:16.745Z,98572.34
2022-09-06T06:11:43.606Z,98574.19
2022-09-06T06:14:10.343Z,98581.84
2022-09-06T06:16:36.944Z,98576.28
2022-09-06T06:19:03.683Z,98583.31
2022-09-06T06:21:32.086Z,98584.84
2022-09-06T06:24:00.844Z,98578.47
2022-09-06T06:26:29.746Z,98591.88
2022-09-06T06:28:57.869Z,98579.31
2022-09-06T06:31:24.758Z,98579.03
2022-09-06T06:33:51.425Z,98584.56
2022-09-06T06:36:24.317Z,98590.06
2022-09-06T06:38:54.118Z,98580.34
2022-09-06T06:41:24.048Z,98585.56
2022-09-06T06:43:55.554Z,98590.28
2022-09-06T06:46:24.557Z,98588.53
2022-09-06T06:48:54.737Z,98588.41
2022-09-06T06:51:25.315Z,98591.91
2022-09-06T06:53:52.568Z,98595.44
2022-09-06T06:56:22.028Z,98590.09
2022-09-06T06:58:50.688Z,98596.28
2022-09-06T07:01:18.201Z,98593.28
2022-09-06T07:03:44.782Z,98598.13
2022-09-06T07:06:12.136Z,98591.13
2022-09-06T07:08:40.151Z,98584.97
2022-09-06T07:11:08.087Z,98594.53
2022-09-06T07:13:34.750Z,98599.19
2022-09-06T07:16:15.630Z,98599.31
2022-09-06T07:18:43.598Z,98587.22
2022-09-06T07:24:08.403Z,98592.97
2022-09-06T07:26:37.574Z,98593.72
2022-09-06T07:29:05.810Z,98602.19
2022-09-06T07:34:20.528Z,98593.16
2022-09-06T07:36:47.319Z,98594.81
2022-09-06T07:39:14.178Z,98603.38
2022-09-06T07:41:40.616Z,98603.31
2022-09-06T07:44:07.104Z,98604.72
2022-09-06T07:46:33.694Z,98609.59
2022-09-06T07:49:00.223Z,98610.00
2022-09-06T07:51:26.720Z,98608.84
2022-09-06T07:54:19.360Z,98604.13
2022-09-06T07:56:44.332Z,98605.50
2022-09-06T07:59:10.894Z,98599.84
2022-09-06T08:01:38.917Z,98605.44
2022-09-06T08:04:10.439Z,98603.50
2022-09-06T08:09:26.149Z,98600.06
2022-09-06T08:11:52.735Z,98601.78
2022-09-06T08:14:19.950Z,98604.16
2022-09-06T08:16:46.698Z,98596.75
2022-09-06T08:19:13.399Z,98605.28
2022-09-06T08:21:39.862Z,98600.34
2022-09-06T08:24:09.616Z,98600.03
2022-09-06T08:26:44.638Z,98595.91
2022-09-06T08:29:12.690Z,98597.22
2022-09-06T08:31:42.820Z,98592.41
2022-09-06T08:34:12.504Z,98598.97
2022-09-06T08:36:39.109Z,98591.63
2022-09-06T08:39:07.255Z,98584.75
2022-09-06T08:42:01.287Z,98589.88
2022-09-06T08:44:58.666Z,98591.28
2022-09-06T08:47:25.481Z,98592.75
2022-09-06T08:50:01.074Z,98584.88
2022-09-06T08:52:49.436Z,98585.63
2022-09-06T08:55:32.490Z,98579.72
2022-09-06T08:58:26.873Z,98566.88
2022-09-06T09:01:02.587Z,98569.13
2022-09-06T09:03:36.794Z,98571.16
2022-09-06T09:06:06.602Z,98571.22
2022-09-06T09:08:44.277Z,98559.91
2022-09-06T09:11:17.115Z,98567.38
2022-09-06T09:13:56.269Z,98566.31
2022-09-06T09:16:22.993Z,98556.31
2022-09-06T09:18:52.732Z,98561.56
2022-09-06T09:21:29.586Z,98557.81
2022-09-06T09:24:03.580Z,98550.25
2022-09-06T09:26:36.928Z,98546.72
2022-09-06T09:29:12.617Z,98546.78
2022-09-06T09:31:42.157Z,98542.94
2022-09-06T09:34:13.802Z,98532.53
2022-09-06T09:36:40.669Z,98534.75
2022-09-06T09:39:11.773Z,98528.38
2022-09-06T09:41:43.584Z,98532.81
2022-09-06T09:44:17.427Z,98529.97
2022-09-06T09:46:43.973Z,98529.38
2022-09-06T09:49:28.938Z,98518.63
2022-09-06T09:52:13.664Z,98509.69
2022-09-06T09:54:46.334Z,98515.44
2022-09-06T09:57:18.673Z,98514.44
2022-09-06T09:59:57.419Z,98516.22
2022-09-06T10:02:31.299Z,98511.34
2022-09-06T10:05:03.830Z,98515.47
2022-09-06T10:07:32.767Z,98513.47
2022-09-06T10:10:11.762Z,98513.94
2022-09-06T10:12:40.396Z,98502.88
2022-09-06T10:15:34.003Z,98506.44
2022-09-06T10:18:00.589Z,98502.34
2022-09-06T10:20:40.217Z,98500.94
2022-09-06T10:26:46.509Z,98499.53
2022-09-06T10:29:14.302Z,98503.38
2022-09-06T10:31:56.033Z,98504.97
2022-09-06T10:34:49.452Z,98501.69
2022-09-06T10:37:41.598Z,98499.25
2022-09-06T10:40:11.144Z,98492.06
2022-09-06T10:42:46.376Z,98497.13
2022-09-06T10:45:29.098Z,98490.81
2022-09-06T10:48:04.783Z,98490.66
2022-09-06T10:51:22.623Z,98493.22
2022-09-06T10:53:57.668Z,98484.81
2022-09-06T11:00:13.332Z,98471.66
2022-09-06T11:05:46.197Z,98457.41
2022-09-06T11:11:18.387Z,98467.41
2022-09-06T11:13:44.890Z,98470.84
2022-09-06T11:16:24.358Z,98472.47
2022-09-06T11:18:59.687Z,98463.47
2022-09-06T11:21:41.059Z,98470.81
2022-09-06T11:24:12.475Z,98471.19
2022-09-06T11:27:12.776Z,98470.06
2022-09-06T11:29:42.875Z,98461.81
2022-09-06T11:32:44.715Z,98458.13
2022-09-06T11:35:22.648Z,98449.66
2022-09-06T11:38:07.112Z,98455.44
2022-09-06T11:40:41.397Z,98456.63
2022-09-06T11:43:11.469Z,98454.47
2022-09-06T11:45:50.001Z,98450.84
2022-09-06T11:48:26.634Z,98448.38
2022-09-06T11:50:59.377Z,98449.69
2022-09-06T11:53:28.895Z,98443.19
2022-09-06T11:56:01.438Z,98437.19
2022-09-06T11:58:46.230Z,98442.81
2022-09-06T12:01:12.606Z,98437.13
2022-09-06T12:04:04.071Z,98423.53
2022-09-06T12:06:43.820Z,98434.88
2022-09-06T12:09:31.380Z,98437.28
2022-09-06T12:11:59.817Z,98429.50
2022-09-06T12:14:46.079Z,98425.25
2022-09-06T12:17:12.686Z,98420.03
2022-09-06T12:19:47.964Z,98427.88
2022-09-06T12:22:26.542Z,98422.06
2022-09-06T12:25:00.921Z,98418.34
2022-09-06T12:27:39.650Z,98415.03
2022-09-06T12:30:11.350Z,98419.19
2022-09-06T12:32:45.210Z,98427.00
2022-09-06T12:38:24.093Z,98417.53
2022-09-06T12:40:52.375Z,98408.34
2022-09-06T12:43:19.477Z,98415.22
2022-09-06T12:45:50.623Z,98403.50
2022-09-06T12:48:30.608Z,98398.91
2022-09-06T12:51:13.458Z,98396.13
2022-09-06T12:53:39.954Z,98399.13
2022-09-06T12:56:14.359Z,98397.97
2022-09-06T12:58:41.175Z,98395.09
2022-09-06T13:01:33.197Z,98387.91
2022-09-06T13:04:08.980Z,98389.91
2022-09-06T13:06:40.141Z,98382.22
2022-09-06T13:09:10.368Z,98385.53
2022-09-06T13:11:42.606Z,98392.41
2022-09-06T13:14:16.946Z,98387.50
2022-09-06T13:16:49.322Z,98379.00
2022-09-06T13:19:18.996Z,98374.16
2022-09-06T13:21:46.870Z,98380.66
2022-09-06T13:24:35.387Z,98376.25
2022-09-06T13:27:30.671Z,98372.31
2022-09-06T13:30:01.953Z,98372.53
2022-09-06T13:32:29.475Z,98371.69
2022-09-06T13:34:58.927Z,98365.91
2022-09-06T13:37:28.332Z,98369.25
2022-09-06T13:39:54.976Z,98362.91
2022-09-06T13:42:37.135Z,98370.19
2022-09-06T13:45:27.129Z,98367.56
2022-09-06T13:48:03.480Z,98355.97
2022-09-06T13:50:41.643Z,98349.09
2022-09-06T13:53:08.634Z,98357.03
2022-09-06T13:55:35.171Z,98355.72
2022-09-06T13:58:01.593Z,98352.59
2022-09-06T14:00:28.228Z,98356.03
2022-09-06T14:02:55.590Z,98345.66
2022-09-06T14:05:22.403Z,98338.81
2022-09-06T14:07:48.862Z,98350.34
2022-09-06T14:10:15.758Z,98345.00
2022-09-06T14:12:42.391Z,98342.41
2022-09-06T14:15:09.897Z,98343.59
2022-09-06T14:17:36.539Z,98339.13
2022-09-06T14:20:03.659Z,98344.19
2022-09-06T14:22:30.518Z,98333.88
2022-09-06T14:24:56.995Z,98333.88
2022-09-06T14:27:23.771Z,98344.31
2022-09-06T14:29:50.341Z,98342.94
2022-09-06T14:32:22.245Z,98348.69
2022-09-06T14:34:49.122Z,98344.59
2022-09-06T14:37:15.604Z,98345.13
2022-09-06T14:39:42.161Z,98341.31
2022-09-06T14:42:09.004Z,98344.84
2022-09-06T14:44:35.533Z,98331.66
2022-09-06T14:47:02.202Z,98335.75
2022-09-06T14:49:28.800Z,98328.38
2022-09-06T14:51:55.302Z,98321.84
2022-09-06T14:54:24.165Z,98315.25
2022-09-06T14:56:53.839Z,98310.59
2022-09-06T14:59:20.434Z,98304.28
2022-09-06T15:01:47.108Z,98313.88
2022-09-06T15:04:13.608Z,98301.50
2022-09-06T15:06:44.754Z,98296.31
2022-09-06T15:09:11.551Z,98307.53
2022-09-06T15:11:43.648Z,98315.53
2022-09-06T15:14:19.695Z,98315.91
2022-09-06T15:16:52.006Z,98312.72
2022-09-06T15:19:21.871Z,98304.16
2022-09-06T15:21:48.403Z,98304.53
2022-09-06T15:24:15.669Z,98299.41
2022-09-06T15:26:43.314Z,98306.53
2022-09-06T15:29:11.807Z,98310.84
2022-09-06T15:31:39.067Z,98321.63
2022-09-06T15:34:08.347Z,98326.19
2022-09-06T15:36:36.077Z,98326.06
2022-09-06T15:39:05.210Z,98327.13
2022-09-06T15:41:35.969Z,98330.69
2022-09-06T15:44:11.273Z,98326.97
2022-09-06T15:46:58.093Z,98329.97
2022-09-06T15:49:33.803Z,98331.13
2022-09-06T15:52:02.745Z,98328.75
2022-09-06T15:54:48.385Z,98331.41
2022-09-06T15:57:16.820Z,98332.16
2022-09-06T15:59:43.999Z,98336.22
2022-09-06T16:02:11.186Z,98342.41
2022-09-06T16:04:37.835Z,98344.75
2022-09-06T16:07:04.424Z,98347.00
2022-09-06T16:09:31.756Z,98355.69
2022-09-06T16:11:58.309Z,98346.47
2022-09-06T16:14:25.243Z,98339.63
2022-09-06T16:16:53.837Z,98345.53
2022-09-06T16:19:20.530Z,98322.16
2022-09-06T16:21:47.115Z,98324.16
2022-09-06T16:24:14.346Z,98336.91
2022-09-06T16:26:43.403Z,98358.41
2022-09-06T16:29:11.796Z,98364.97
2022-09-06T16:31:40.541Z,98363.97
2022-09-06T16:34:08.275Z,98364.34
2022-09-06T16:36:34.841Z,98358.44
2022-09-06T16:39:01.561Z,98364.84
2022-09-06T16:41:34.644Z,98367.22
2022-09-06T16:44:01.331Z,98358.28
2022-09-06T16:46:31.227Z,98361.31
2022-09-06T16:49:03.155Z,98369.53
2022-09-06T16:51:31.511Z,98375.03
2022-09-06T16:53:59.480Z,98376.47
2022-09-06T16:56:28.388Z,98375.41
2022-09-06T16:58:57.370Z,98374.31
2022-09-06T17:01:25.667Z,98370.91
2022-09-06T17:03:53.118Z,98381.22
2022-09-06T17:06:21.341Z,98383.47
2022-09-06T17:08:48.113Z,98381.44
2022-09-06T17:11:18.404Z,98377.44
2022-09-06T17:13:47.389Z,98393.13
2022-09-06T17:16:32.773Z,98406.59
2022-09-06T17:19:01.265Z,98399.63
2022-09-06T17:21:29.391Z,98396.38
2022-09-06T17:23:58.666Z,98390.38
2022-09-06T17:26:25.261Z,98387.44
2022-09-06T17:28:51.835Z,98385.91
2022-09-06T17:31:22.393Z,98377.25
2022-09-06T17:33:52.412Z,98369.56
2022-09-06T17:36:23.621Z,98374.31
2022-09-06T17:38:53.639Z,98377.06
2022-09-06T17:41:27.607Z,98363.94
2022-09-06T17:43:54.993Z,98351.50
2022-09-06T17:46:27.872Z,98349.16
2022-09-06T17:48:56.221Z,98343.56
2022-09-06T17:51:24.264Z,98348.94
2022-09-06T17:53:51.480Z,98337.28
2022-09-06T17:56:19.010Z,98360.13
2022-09-06T17:58:54.359Z,98361.16
2022-09-06T18:01:23.328Z,98359.66
2022-09-06T18:03:50.581Z,98359.84
2022-09-06T18:06:20.103Z,98354.81
2022-09-06T18:08:47.783Z,98357.28
2022-09-06T18:11:20.044Z,98360.00
2022-09-06T18:13:48.001Z,98343.28
2022-09-06T18:16:14.942Z,98344.19
2022-09-06T18:18:41.844Z,98338.31
2022-09-06T18:21:08.529Z,98342.03
2022-09-06T18:23:36.027Z,98339.88
2022-09-06T18:26:08.078Z,98352.47
2022-09-06T18:28:36.809Z,98348.66
2022-09-06T18:31:09.801Z,98350.94
2022-09-06T18:33:37.737Z,98341.03
2022-09-06T18:36:05.320Z,98345.28
2022-09-06T18:38:32.312Z,98334.69
2022-09-06T18:41:01.492Z,98333.50
2022-09-06T18:43:33.905Z,98324.59
2022-09-06T18:46:08.420Z,98322.31
2022-09-06T18:48:36.800Z,98325.97
2022-09-06T18:51:05.213Z,98323.75
2022-09-06T18:53:31.912Z,98319.16
2022-09-06T18:55:59.434Z,98326.84
2022-09-06T18:58:26.273Z,98319.72
2022-09-06T19:00:53.088Z,98323.69
2022-09-06T19:03:20.089Z,98315.44
2022-09-06T19:05:47.501Z,98319.22
2022-09-06T19:08:14.004Z,98322.56
2022-09-06T19:10:40.525Z,98313.38
2022-09-06T19:13:07.391Z,98315.13
2022-09-06T19:15:33.903Z,98310.69
2022-09-06T19:18:00.450Z,98304.03
2022-09-06T19:20:26.971Z,98310.91
2022-09-06T19:22:53.500Z,98304.41
2022-09-06T19:25:20.324Z,98308.22
2022-09-06T19:27:48.806Z,98313.13
2022-09-06T19:30:15.609Z,98312.41
2022-09-06T19:32:42.129Z,98309.34
2022-09-06T19:35:09.036Z,98301.94
2022-09-06T19:37:35.562Z,98294.50
2022-09-06T19:40:02.511Z,98286.84
2022-09-06T19:42:29.080Z,98290.63
2022-09-06T19:44:55.621Z,98296.22
2022-09-06T19:47:22.140Z,98294.34
2022-09-06T19:49:48.704Z,98285.88
2022-09-06T19:52:15.524Z,98275.25
2022-09-06T19:54:43.243Z,98275.25
2022-09-06T19:57:10.138Z,98268.41
2022-09-06T19:59:36.881Z,98259.69
2022-09-06T20:02:03.669Z,98254.28
2022-09-06T20:04:30.393Z,98255.44
2022-09-06T20:06:57.578Z,98257.28
2022-09-06T20:09:24.229Z,98249.34
2022-09-06T20:11:51.317Z,98259.72
2022-09-06T20:14:17.926Z,98259.91
2022-09-06T20:16:44.544Z,98251.59
2022-09-06T20:19:12.513Z,98259.84
2022-09-06T20:21:39.126Z,98251.94
2022-09-06T20:24:05.894Z,98251.94
2022-09-06T20:26:32.619Z,98253.78
2022-09-06T20:29:01.370Z,98253.53
2022-09-06T20:31:29.827Z,98251.84
2022-09-06T20:33:58.179Z,98255.56
2022-09-06T20:36:25.215Z,98255.75
2022-09-06T20:38:51.770Z,98251.50
2022-09-06T20:41:20.966Z,98254.78
2022-09-06T20:43:55.223Z,98251.03
2022-09-06T20:46:26.893Z,98248.50
2022-09-06T20:48:56.859Z,98258.16
2022-09-06T20:51:23.966Z,98258.97
2022-09-06T20:53:56.437Z,98256.22
2022-09-06T20:56:26.236Z,98259.50
2022-09-06T20:58:55.324Z,98259.28
2022-09-06T21:01:27.602Z,98267.97
2022-09-06T21:03:56.843Z,98267.53
2022-09-06T21:06:25.116Z,98274.28
2022-09-06T21:08:51.705Z,98270.69
2022-09-06T21:11:19.358Z,98273.16
2022-09-06T21:13:51.204Z,98273.72
2022-09-06T21:16:23.959Z,98273.91
2022-09-06T21:18:56.337Z,98281.38
2022-09-06T21:21:24.696Z,98280.34
2022-09-06T21:23:51.264Z,98275.31
2022-09-06T21:26:18.210Z,98286.63
2022-09-06T21:28:46.236Z,98273.25
2022-09-06T21:31:15.777Z,98283.06
2022-09-06T21:33:48.001Z,98277.47
2022-09-06T21:36:20.382Z,98279.28
2022-09-06T21:38:49.032Z,98285.19
2022-09-06T21:41:17.456Z,98283.16
2022-09-06T21:43:45.185Z,98278.44
2022-09-06T21:46:14.484Z,98276.75
2022-09-06T21:48:43.740Z,98277.22
2022-09-06T21:51:14.056Z,98276.88
2022-09-06T21:53:41.730Z,98274.19
2022-09-06T21:56:08.230Z,98269.34
2022-09-06T21:58:35.275Z,98279.06
2022-09-06T22:01:02.310Z,98271.84
2022-09-06T22:03:35.869Z,98274.91
2022-09-06T22:06:29.358Z,98271.28
2022-09-06T22:08:58.047Z,98277.03
2022-09-06T22:11:27.083Z,98259.31
2022-09-06T22:13:53.635Z,98256.78
2022-09-06T22:16:22.471Z,98260.47
2022-09-06T22:18:49.864Z,98265.13
2022-09-06T22:21:20.033Z,98253.19
2022-09-06T22:24:07.748Z,98259.59
2022-09-06T22:26:36.501Z,98253.69
2022-09-06T22:29:06.011Z,98249.84
2022-09-06T22:31:33.854Z,98250.59
2022-09-06T22:34:01.201Z,98245.81
2022-09-06T22:36:28.246Z,98247.84
2022-09-06T22:38:58.628Z,98246.66
2022-09-06T22:41:27.140Z,98235.44
2022-09-06T22:43:53.739Z,98233.56
2022-09-06T22:46:20.547Z,98232.34
2022-09-06T22:48:47.355Z,98229.66
2022-09-06T22:51:13.880Z,98232.91
2022-09-06T22:53:40.471Z,98229.50
2022-09-06T22:56:07.181Z,98227.84
2022-09-06T22:58:35.274Z,98227.66
2022-09-06T23:01:07.041Z,98228.19
2022-09-06T23:03:35.202Z,98225.34
2022-09-06T23:06:02.316Z,98227.56
2022-09-06T23:08:29.223Z,98217.78
2022-09-06T23:10:55.766Z,98225.16
2022-09-06T23:13:22.262Z,98216.00
2022-09-06T23:15:48.856Z,98227.59
2022-09-06T23:18:15.390Z,98237.94
2022-09-06T23:20:41.868Z,98238.22
2022-09-06T23:23:08.562Z,98248.84
2022-09-06T23:25:38.785Z,98240.88
2022-09-06T23:28:05.420Z,98250.25
2022-09-06T23:30:32.158Z,98248.31
2022-09-06T23:32:58.646Z,98253.69
2022-09-06T23:35:25.303Z,98252.47
2022-09-06T23:37:52.271Z,98255.72
2022-09-06T23:40:19.558Z,98258.13
2022-09-06T23:42:46.442Z,98249.75
2022-09-06T23:45:13.119Z,98257.38
2022-09-06T23:47:39.640Z,98250.50
2022-09-06T23:50:07.194Z,98259.50
2022-09-06T23:52:33.641Z,98266.69
2022-09-06T23:55:00.298Z,98270.59
2022-09-06T23:57:26.754Z,98265.78
2022-09-06T23:59:53.183Z,98268.31
